Time;durP1;ratioP1;P1;durP2;ratioP2;P2;SDS_P1;SDS_P2;PMS_P1;PMS_P2;Temp;Humidity;BMP_temperature;BMP_pressure;BME280_temperature;BME280_humidity;BME280_pressure;Samples;Min_cycle;Max_cycle;Signal;HPM_P1;HPM_P2
2022/10/17 00:00:47;;;;;;;14.07;11.17;;;13.70;99.90;;;;;;2612362;54;20193;-80
2022/10/17 00:03:13;;;;;;;14.77;12.67;;;13.50;99.90;;;;;;2613104;54;20404;-76
2022/10/17 00:05:41;;;;;;;15.10;12.07;;;13.60;99.90;;;;;;2613082;54;20455;-77
2022/10/17 00:08:08;;;;;;;16.40;12.10;;;13.70;99.90;;;;;;2613203;54;20483;-76
2022/10/17 00:10:34;;;;;;;14.07;12.57;;;13.70;99.90;;;;;;2611866;39;20822;-76
2022/10/17 00:13:00;;;;;;;14.30;11.93;;;13.70;99.90;;;;;;2612481;54;20579;-78
2022/10/17 00:15:26;;;;;;;18.87;10.33;;;13.60;99.90;;;;;;2612458;54;20411;-77
2022/10/17 00:17:51;;;;;;;12.67;11.27;;;13.50;99.90;;;;;;2612182;54;20163;-83
2022/10/17 00:20:17;;;;;;;13.13;11.73;;;13.50;99.90;;;;;;2613826;47;20181;-83
2022/10/17 00:22:43;;;;;;;19.33;11.50;;;13.40;99.90;;;;;;2610693;54;20281;-79
2022/10/17 00:25:10;;;;;;;14.57;11.37;;;13.40;99.90;;;;;;2611674;54;20268;-77
2022/10/17 00:27:37;;;;;;;12.27;10.53;;;13.30;99.90;;;;;;2611479;54;20435;-77
2022/10/17 00:30:04;;;;;;;12.00;10.73;;;13.30;99.90;;;;;;2613695;54;20466;-78
2022/10/17 00:32:30;;;;;;;28.63;12.90;;;13.30;99.90;;;;;;2612246;54;21061;-76
2022/10/17 00:34:57;;;;;;;15.00;12.20;;;13.30;99.90;;;;;;2610747;54;20435;-77
2022/10/17 00:37:22;;;;;;;14.20;12.07;;;13.30;99.90;;;;;;2612210;47;20435;-76
2022/10/17 00:39:48;;;;;;;18.97;12.30;;;13.50;99.90;;;;;;2613531;54;20439;-78
2022/10/17 00:42:14;;;;;;;19.13;12.97;;;13.50;99.90;;;;;;2612806;54;20174;-78
2022/10/17 00:44:40;;;;;;;15.17;12.50;;;13.70;99.90;;;;;;2612762;54;20197;-79
2022/10/17 00:47:10;;;;;;;15.37;12.87;;;14.00;99.90;;;;;;2612206;47;20453;-78
2022/10/17 00:49:37;;;;;;;15.40;13.23;;;14.10;99.90;;;;;;2611122;54;20177;-80
2022/10/17 00:52:08;;;;;;;18.93;13.10;;;14.40;99.90;;;;;;2610152;54;20423;-80
2022/10/17 00:54:39;;;;;;;14.57;11.57;;;14.90;99.90;;;;;;2610962;54;20435;-84
2022/10/17 00:57:06;;;;;;;13.47;11.00;;;15.10;99.90;;;;;;2615986;39;21318;-85
2022/10/17 00:59:33;;;;;;;13.90;9.70;;;15.50;99.90;;;;;;2617589;54;20414;-88
2022/10/17 01:02:12;;;;;;;17.83;11.00;;;15.50;99.90;;;;;;2616736;54;20416;-84
2022/10/17 01:04:40;;;;;;;14.20;12.83;;;15.70;99.90;;;;;;2614094;54;20380;-84
2022/10/17 01:07:06;;;;;;;11.13;10.03;;;15.90;99.90;;;;;;2612543;54;20408;-86
2022/10/17 01:09:33;;;;;;;12.60;11.00;;;16.00;99.90;;;;;;2615706;54;21059;-87
2022/10/17 01:12:10;;;;;;;15.93;12.30;;;16.00;99.90;;;;;;2614049;47;20423;-86
2022/10/17 01:15:08;;;;;;;11.40;9.57;;;15.90;99.90;;;;;;2612655;39;20928;-84
2022/10/17 01:18:00;;;;;;;11.27;10.00;;;16.10;99.90;;;;;;2612225;54;20431;-84
2022/10/17 01:20:40;;;;;;;14.27;10.63;;;16.20;99.90;;;;;;2614490;54;20473;-85
2022/10/17 01:23:33;;;;;;;13.13;10.00;;;16.20;99.90;;;;;;2614723;47;20439;-77
2022/10/17 01:26:32;;;;;;;13.83;9.30;;;16.10;99.90;;;;;;2613771;47;20415;-79
2022/10/17 01:29:21;;;;;;;12.20;9.93;;;16.20;99.90;;;;;;2614190;54;20415;-80
2022/10/17 01:32:10;;;;;;;11.43;9.07;;;16.30;99.90;;;;;;2613383;54;20555;-80
2022/10/17 01:34:51;;;;;;;9.17;8.00;;;16.30;99.90;;;;;;2612003;54;20974;-79
2022/10/17 01:37:36;;;;;;;10.57;9.33;;;16.30;99.90;;;;;;2615195;54;20380;-79
2022/10/17 01:40:11;;;;;;;10.33;9.10;;;16.30;99.90;;;;;;2613884;54;20499;-78
2022/10/17 01:42:46;;;;;;;9.80;8.90;;;16.30;99.90;;;;;;2614332;47;20427;-79
2022/10/17 01:45:28;;;;;;;10.30;9.40;;;16.30;99.90;;;;;;2615557;39;20797;-79
2022/10/17 01:47:55;;;;;;;10.07;8.97;;;16.40;99.90;;;;;;2615159;47;20439;-76
2022/10/17 01:50:48;;;;;;;13.33;10.23;;;16.30;99.90;;;;;;2614780;39;20824;-77
2022/10/17 01:53:24;;;;;;;11.10;8.50;;;16.30;99.90;;;;;;2611849;54;20443;-77
2022/10/17 01:55:52;;;;;;;9.67;8.60;;;16.40;99.90;;;;;;2613400;54;20460;-79
2022/10/17 01:58:22;;;;;;;9.10;8.20;;;16.50;99.90;;;;;;2613945;54;20419;-84
2022/10/17 02:00:48;;;;;;;9.33;8.07;;;16.40;99.90;;;;;;2614212;39;21018;-84
2022/10/17 02:03:17;;;;;;;14.73;8.23;;;16.40;99.90;;;;;;2612660;54;20426;-75
2022/10/17 02:05:44;;;;;;;10.03;8.50;;;16.40;99.90;;;;;;2610875;54;20450;-76
2022/10/17 02:08:10;;;;;;;10.43;9.37;;;16.50;99.90;;;;;;2611437;54;20474;-79
2022/10/17 02:10:52;;;;;;;9.13;8.23;;;16.60;99.90;;;;;;2610900;54;20440;-80
2022/10/17 02:13:56;;;;;;;11.17;8.37;;;16.70;99.90;;;;;;2614200;54;21231;-79
2022/10/17 02:16:30;;;;;;;7.77;6.90;;;16.90;99.90;;;;;;2614454;47;20426;-75
2022/10/17 02:19:13;;;;;;;9.20;7.50;;;17.00;99.90;;;;;;2612656;54;20403;-76
2022/10/17 02:22:08;;;;;;;15.07;7.93;;;16.90;99.90;;;;;;2612116;54;20462;-78
2022/10/17 02:24:46;;;;;;;10.13;7.93;;;17.00;99.90;;;;;;2613026;47;20431;-79
2022/10/17 02:27:42;;;;;;;13.33;7.40;;;17.30;99.90;;;;;;2610704;46;20438;-79
2022/10/17 02:30:13;;;;;;;7.57;6.87;;;17.30;99.90;;;;;;2610260;47;20431;-81
2022/10/17 02:32:57;;;;;;;10.60;7.33;;;17.20;99.90;;;;;;2614121;54;20407;-79
2022/10/17 02:35:26;;;;;;;6.80;6.20;;;17.10;99.90;;;;;;2614938;54;20454;-80
2022/10/17 02:37:52;;;;;;;8.57;7.67;;;17.30;99.90;;;;;;2612617;54;20993;-79
2022/10/17 02:40:21;;;;;;;7.00;6.40;;;17.30;99.90;;;;;;2612959;54;20539;-78
2022/10/17 02:42:48;;;;;;;7.60;6.80;;;17.20;99.90;;;;;;2613181;54;20435;-77
2022/10/17 02:45:15;;;;;;;7.47;6.00;;;17.20;99.90;;;;;;2612400;54;20431;-78
2022/10/17 02:47:47;;;;;;;6.30;5.70;;;17.20;99.90;;;;;;2611654;47;20424;-81
2022/10/17 02:50:13;;;;;;;11.50;6.20;;;17.30;99.90;;;;;;2613642;54;20411;-80
2022/10/17 02:52:51;;;;;;;7.10;6.13;;;17.40;99.90;;;;;;2612254;47;20419;-78
2022/10/17 02:55:18;;;;;;;6.63;5.70;;;17.30;99.90;;;;;;2610838;54;20407;-78
2022/10/17 02:57:49;;;;;;;10.13;6.47;;;17.30;99.90;;;;;;2608887;54;20458;-78
2022/10/17 03:00:16;;;;;;;8.57;5.57;;;17.20;99.90;;;;;;2608426;54;20446;-78
2022/10/17 03:02:46;;;;;;;8.20;6.60;;;17.10;99.90;;;;;;2609082;54;20518;-77
2022/10/17 03:05:19;;;;;;;9.03;7.13;;;17.20;99.90;;;;;;2609816;39;20778;-76
2022/10/17 03:07:44;;;;;;;8.83;5.63;;;17.40;99.90;;;;;;2612369;54;20983;-83
2022/10/17 03:10:10;;;;;;;8.60;5.93;;;17.30;99.90;;;;;;2613434;54;20434;-83
2022/10/17 03:12:36;;;;;;;12.03;6.67;;;17.30;99.90;;;;;;2612670;54;20166;-75
2022/10/17 03:15:03;;;;;;;6.07;5.47;;;17.20;99.90;;;;;;2611305;47;20427;-75
2022/10/17 03:17:28;;;;;;;6.43;5.60;;;17.40;99.90;;;;;;2613322;39;20831;-75
2022/10/17 03:19:54;;;;;;;10.07;6.77;;;17.40;99.90;;;;;;2609963;54;20414;-75
2022/10/17 03:22:20;;;;;;;7.63;5.60;;;17.40;99.90;;;;;;2612607;47;20166;-75
2022/10/17 03:24:45;;;;;;;7.90;6.20;;;17.40;99.90;;;;;;2611988;47;20163;-75
2022/10/17 03:27:11;;;;;;;8.50;4.80;;;17.40;99.90;;;;;;2611519;54;20686;-79
2022/10/17 03:29:37;;;;;;;8.50;5.30;;;17.40;99.90;;;;;;2612967;54;20174;-80
2022/10/17 03:32:02;;;;;;;8.23;5.50;;;17.50;99.90;;;;;;2612325;54;20202;-77
2022/10/17 03:34:28;;;;;;;6.40;5.80;;;17.50;99.90;;;;;;2612129;54;20150;-79
2022/10/17 03:36:54;;;;;;;5.53;4.90;;;17.30;99.90;;;;;;2610651;54;20182;-80
2022/10/17 03:39:19;;;;;;;14.80;6.20;;;17.60;99.90;;;;;;2612859;54;20167;-80
2022/10/17 03:41:45;;;;;;;10.40;5.83;;;17.60;99.90;;;;;;2612557;47;20162;-82
2022/10/17 03:44:11;;;;;;;20.23;6.10;;;17.40;99.90;;;;;;2612087;54;20174;-82
2022/10/17 03:46:36;;;;;;;10.47;6.20;;;17.50;99.90;;;;;;2612059;47;20482;-78
2022/10/17 03:49:02;;;;;;;11.90;5.87;;;17.60;99.90;;;;;;2607987;54;20251;-78
2022/10/17 03:51:28;;;;;;;7.13;5.17;;;17.50;99.90;;;;;;2609753;54;20166;-80
2022/10/17 03:53:53;;;;;;;7.93;6.30;;;17.50;99.90;;;;;;2612378;47;20182;-82
2022/10/17 03:56:22;;;;;;;6.60;5.70;;;17.60;99.90;;;;;;2610659;54;20231;-82
2022/10/17 03:58:48;;;;;;;5.50;4.90;;;17.60;99.90;;;;;;2612642;54;20182;-83
2022/10/17 04:01:15;;;;;;;7.93;5.77;;;17.50;99.90;;;;;;2609787;47;20971;-84
2022/10/17 04:03:42;;;;;;;8.43;5.90;;;17.50;99.90;;;;;;2612600;54;20424;-83
2022/10/17 04:06:10;;;;;;;11.43;7.40;;;17.50;99.90;;;;;;2612293;54;20447;-82
2022/10/17 04:08:36;;;;;;;6.57;5.50;;;17.50;99.90;;;;;;2611624;39;20871;-82
2022/10/17 04:11:04;;;;;;;6.10;5.50;;;17.60;99.90;;;;;;2612748;54;20542;-83
2022/10/17 04:13:30;;;;;;;18.50;6.00;;;17.60;99.90;;;;;;2612732;54;20166;-82
2022/10/17 04:15:58;;;;;;;8.80;5.90;;;17.60;99.90;;;;;;2613042;47;20567;-81
2022/10/17 04:18:24;;;;;;;9.40;5.80;;;17.60;99.90;;;;;;2612299;54;20412;-77
2022/10/17 04:20:50;;;;;;;8.80;5.30;;;17.60;99.90;;;;;;2607965;54;20559;-78
2022/10/17 04:23:16;;;;;;;7.57;5.37;;;17.70;99.90;;;;;;2610782;54;20423;-78
2022/10/17 04:25:41;;;;;;;5.53;5.00;;;17.70;99.90;;;;;;2609508;54;20419;-78
2022/10/17 04:28:07;;;;;;;7.57;4.97;;;17.80;99.90;;;;;;2611743;54;20169;-78
2022/10/17 04:30:33;;;;;;;7.93;5.70;;;17.80;99.90;;;;;;2611800;39;20607;-78
2022/10/17 04:32:58;;;;;;;6.10;5.50;;;17.90;99.90;;;;;;2612026;54;20231;-82
2022/10/17 04:35:24;;;;;;;9.73;5.40;;;17.90;99.90;;;;;;2609051;54;20150;-80
2022/10/17 04:37:50;;;;;;;6.20;5.57;;;18.00;99.90;;;;;;2609109;54;20173;-77
2022/10/17 04:40:17;;;;;;;6.57;5.33;;;18.10;99.90;;;;;;2610944;54;20266;-79
2022/10/17 04:42:43;;;;;;;5.97;5.47;;;18.00;99.90;;;;;;2610783;39;21712;-80
2022/10/17 04:45:09;;;;;;;7.97;5.73;;;17.90;99.90;;;;;;2610390;54;20411;-81
2022/10/17 04:47:35;;;;;;;6.07;5.47;;;17.90;99.90;;;;;;2612591;54;21485;-81
2022/10/17 04:50:00;;;;;;;6.50;4.93;;;17.90;99.90;;;;;;2607839;39;20714;-82
2022/10/17 04:52:26;;;;;;;9.20;5.83;;;17.90;99.90;;;;;;2607616;54;20153;-82
2022/10/17 04:54:52;;;;;;;5.07;4.47;;;17.90;99.90;;;;;;2607318;54;20415;-83
2022/10/17 04:57:18;;;;;;;12.57;6.90;;;18.00;99.90;;;;;;2607874;54;20155;-80
2022/10/17 04:59:44;;;;;;;6.43;5.83;;;17.80;99.90;;;;;;2607922;54;20230;-81
2022/10/17 05:02:10;;;;;;;7.63;4.73;;;18.00;99.90;;;;;;2610344;39;20786;-80
2022/10/17 05:04:36;;;;;;;5.93;4.83;;;18.00;99.90;;;;;;2609552;54;20162;-82
2022/10/17 05:07:02;;;;;;;6.20;5.60;;;18.10;99.90;;;;;;2604995;54;20413;-80
2022/10/17 05:09:28;;;;;;;5.70;5.20;;;18.10;99.90;;;;;;2606017;54;21147;-79
2022/10/17 05:11:54;;;;;;;5.93;5.33;;;18.20;99.90;;;;;;2606388;54;20420;-85
2022/10/17 05:14:20;;;;;;;7.90;5.53;;;18.00;99.90;;;;;;2608345;54;20480;-84
2022/10/17 05:16:46;;;;;;;6.53;5.00;;;18.00;99.90;;;;;;2606996;54;20270;-80
2022/10/17 05:19:11;;;;;;;6.93;4.33;;;18.00;99.90;;;;;;2606563;54;21003;-81
2022/10/17 05:21:37;;;;;;;7.60;5.40;;;18.30;99.90;;;;;;2605879;54;20242;-80
2022/10/17 05:24:07;;;;;;;8.37;6.00;;;18.10;99.90;;;;;;2611054;54;20151;-81
2022/10/17 05:26:33;;;;;;;5.53;5.10;;;18.10;99.90;;;;;;2606356;54;20426;-78
2022/10/17 05:29:01;;;;;;;7.03;4.77;;;18.30;99.90;;;;;;2609167;39;21168;-79
2022/10/17 05:31:29;;;;;;;5.93;5.10;;;18.30;99.90;;;;;;2613297;54;20431;-79
2022/10/17 05:33:55;;;;;;;8.43;5.80;;;18.20;99.90;;;;;;2608796;47;20436;-79
2022/10/17 05:36:21;;;;;;;5.93;4.83;;;18.20;99.90;;;;;;2611310;39;20781;-79
2022/10/17 05:38:51;;;;;;;8.37;5.57;;;18.20;99.90;;;;;;2611146;39;20221;-79
2022/10/17 05:41:18;;;;;;;6.23;5.63;;;18.20;99.90;;;;;;2610879;54;20427;-80
2022/10/17 05:43:44;;;;;;;8.00;5.40;;;18.10;99.90;;;;;;2604710;47;21116;-82
2022/10/17 05:46:10;;;;;;;9.00;6.33;;;18.20;99.90;;;;;;2602357;47;20416;-80
2022/10/17 05:48:36;;;;;;;6.60;5.03;;;18.30;99.90;;;;;;2607821;39;20831;-79
2022/10/17 05:51:05;;;;;;;8.47;5.30;;;18.20;99.90;;;;;;2605728;54;20431;-78
2022/10/17 05:53:36;;;;;;;5.80;4.60;;;18.20;99.90;;;;;;2608936;54;20262;-80
2022/10/17 05:56:05;;;;;;;6.63;5.10;;;18.10;99.90;;;;;;2604840;54;21475;-79
2022/10/17 05:58:33;;;;;;;7.70;5.10;;;18.10;99.90;;;;;;2605296;39;20777;-78
2022/10/17 06:01:01;;;;;;;5.83;4.97;;;18.20;99.90;;;;;;2606922;54;20438;-77
2022/10/17 06:03:27;;;;;;;7.60;5.70;;;18.20;99.90;;;;;;2607601;54;20411;-78
2022/10/17 06:05:53;;;;;;;8.20;6.13;;;18.10;99.90;;;;;;2609704;54;20447;-78
2022/10/17 06:08:19;;;;;;;7.80;5.53;;;18.10;99.90;;;;;;2608358;54;20419;-80
2022/10/17 06:10:50;;;;;;;6.77;5.30;;;18.10;99.90;;;;;;2609317;46;20565;-79
2022/10/17 06:13:17;;;;;;;5.87;5.27;;;18.10;99.90;;;;;;2608546;54;20189;-79
2022/10/17 06:15:43;;;;;;;7.27;6.47;;;18.10;99.90;;;;;;2607825;54;20578;-80
2022/10/17 06:18:08;;;;;;;8.13;5.50;;;18.10;99.90;;;;;;2609445;47;20419;-80
2022/10/17 06:20:34;;;;;;;7.17;4.90;;;18.00;99.90;;;;;;2612629;54;21276;-80
2022/10/17 06:23:00;;;;;;;7.23;5.67;;;18.00;99.90;;;;;;2611985;46;20183;-82
2022/10/17 06:25:25;;;;;;;9.00;5.60;;;18.10;99.90;;;;;;2611324;47;20219;-82
2022/10/17 06:27:51;;;;;;;13.97;5.33;;;18.10;99.90;;;;;;2607521;54;20266;-80
2022/10/17 06:30:16;;;;;;;7.50;5.70;;;18.00;99.90;;;;;;2607071;54;20155;-82
2022/10/17 06:32:42;;;;;;;6.40;5.80;;;17.90;99.90;;;;;;2607124;54;20189;-80
2022/10/17 06:35:08;;;;;;;6.10;5.50;;;18.00;99.90;;;;;;2604834;54;20158;-83
2022/10/17 06:37:35;;;;;;;6.10;4.43;;;18.00;99.90;;;;;;2606241;47;20306;-80
2022/10/17 06:40:01;;;;;;;5.97;5.47;;;18.10;99.90;;;;;;2608627;54;21689;-79
2022/10/17 06:42:28;;;;;;;10.23;5.67;;;18.10;99.90;;;;;;2607731;54;20550;-78
2022/10/17 06:44:54;;;;;;;8.90;5.90;;;18.20;99.90;;;;;;2606386;54;20443;-79
2022/10/17 06:47:19;;;;;;;9.57;6.03;;;18.20;99.90;;;;;;2607627;54;20612;-81
2022/10/17 06:49:45;;;;;;;6.43;5.77;;;18.20;99.90;;;;;;2606954;54;20420;-83
2022/10/17 06:52:10;;;;;;;6.17;5.43;;;18.40;99.90;;;;;;2608018;54;20749;-78
2022/10/17 06:54:36;;;;;;;7.37;5.03;;;18.30;99.90;;;;;;2607309;46;20182;-78
2022/10/17 06:57:02;;;;;;;5.67;5.17;;;18.40;99.90;;;;;;2606276;54;20174;-84
2022/10/17 06:59:27;;;;;;;6.00;5.10;;;18.40;99.90;;;;;;2609290;54;20749;-82
2022/10/17 07:01:53;;;;;;;6.47;5.60;;;18.50;99.90;;;;;;2608224;46;20297;-77
2022/10/17 07:04:20;;;;;;;6.97;5.70;;;18.60;99.90;;;;;;2608331;54;20165;-77
2022/10/17 07:06:45;;;;;;;16.60;6.93;;;18.80;99.90;;;;;;2609766;54;20173;-79
2022/10/17 07:09:11;;;;;;;11.97;5.97;;;18.80;99.90;;;;;;2612919;54;20411;-79
2022/10/17 07:11:37;;;;;;;7.77;5.27;;;18.80;99.90;;;;;;2609507;54;20173;-79
2022/10/17 07:14:02;;;;;;;9.03;5.90;;;18.80;99.90;;;;;;2611367;47;20201;-80
2022/10/17 07:16:28;;;;;;;6.13;5.60;;;18.80;99.90;;;;;;2607948;54;20162;-81
2022/10/17 07:18:54;;;;;;;11.50;6.23;;;18.80;99.90;;;;;;2607392;54;20274;-80
2022/10/17 07:21:20;;;;;;;11.47;5.77;;;18.80;99.90;;;;;;2612931;54;20174;-80
2022/10/17 07:23:45;;;;;;;6.03;5.53;;;18.80;99.90;;;;;;2613222;54;20431;-82
2022/10/17 07:26:14;;;;;;;8.83;5.07;;;19.00;99.90;;;;;;2609291;54;20150;-79
2022/10/17 07:28:42;;;;;;;8.57;5.60;;;18.80;99.90;;;;;;2609938;47;20169;-81
2022/10/17 07:31:10;;;;;;;9.70;5.47;;;19.10;99.90;;;;;;2612356;54;20428;-79
2022/10/17 07:33:36;;;;;;;8.07;5.70;;;19.30;99.90;;;;;;2612331;54;20416;-78
2022/10/17 07:36:03;;;;;;;7.23;5.40;;;19.60;99.90;;;;;;2612114;54;20432;-76
2022/10/17 07:38:29;;;;;;;12.00;5.23;;;19.60;99.90;;;;;;2614635;54;20174;-80
2022/10/17 07:40:59;;;;;;;6.83;5.60;;;19.50;99.90;;;;;;2613176;54;20423;-80
2022/10/17 07:43:26;;;;;;;6.03;5.53;;;19.60;99.90;;;;;;2611847;54;20147;-77
2022/10/17 07:45:52;;;;;;;8.70;5.83;;;19.70;99.90;;;;;;2614865;54;20419;-77
2022/10/17 07:48:19;;;;;;;7.47;5.57;;;19.70;99.90;;;;;;2614090;39;20777;-81
2022/10/17 07:50:45;;;;;;;6.40;5.30;;;19.60;99.90;;;;;;2613860;54;20431;-83
2022/10/17 07:53:10;;;;;;;6.70;4.87;;;19.30;99.90;;;;;;2613510;54;21021;-83
2022/10/17 07:55:37;;;;;;;8.70;5.13;;;19.30;99.90;;;;;;2612519;54;20157;-83
2022/10/17 07:58:03;;;;;;;5.20;4.80;;;19.30;99.90;;;;;;2611192;54;20151;-84
2022/10/17 08:00:29;;;;;;;7.97;5.40;;;19.10;99.90;;;;;;2611829;47;20945;-83
2022/10/17 08:02:54;;;;;;;6.37;5.27;;;19.20;99.90;;;;;;2611681;54;20423;-79
2022/10/17 08:05:20;;;;;;;7.37;6.00;;;19.20;99.90;;;;;;2611314;54;20154;-79
2022/10/17 08:07:46;;;;;;;10.27;5.70;;;19.40;99.90;;;;;;2612592;54;20166;-80
2022/10/17 08:10:13;;;;;;;5.30;4.90;;;19.70;99.90;;;;;;2610558;54;20266;-77
2022/10/17 08:12:40;;;;;;;9.10;5.50;;;19.80;99.90;;;;;;2609651;54;20185;-79
2022/10/17 08:15:07;;;;;;;9.03;5.30;;;20.40;99.90;;;;;;2610088;47;20427;-79
2022/10/17 08:17:37;;;;;;;8.33;5.33;;;20.10;99.90;;;;;;2612655;54;20436;-79
2022/10/17 08:20:05;;;;;;;7.77;5.03;;;20.50;99.90;;;;;;2613301;54;20411;-79
2022/10/17 08:22:32;;;;;;;5.20;4.70;;;20.70;99.90;;;;;;2613764;54;20423;-80
2022/10/17 08:24:57;;;;;;;4.70;4.40;;;20.90;99.90;;;;;;2611468;54;20507;-78
2022/10/17 08:27:24;;;;;;;7.63;5.00;;;20.80;99.90;;;;;;2610194;54;20431;-78
2022/10/17 08:29:53;;;;;;;5.90;5.30;;;20.90;99.90;;;;;;2612037;51;20180;-80
2022/10/17 08:32:25;;;;;;;5.30;4.80;;;21.10;99.90;;;;;;2609863;39;21418;-80
2022/10/17 08:34:51;;;;;;;6.83;5.50;;;21.20;99.90;;;;;;2609593;47;20424;-81
2022/10/17 08:37:17;;;;;;;6.60;5.50;;;21.50;99.90;;;;;;2612833;54;20443;-82
2022/10/17 08:39:43;;;;;;;7.63;4.80;;;21.20;99.90;;;;;;2613846;47;21059;-79
2022/10/17 08:42:33;;;;;;;20.17;5.20;;;21.90;99.90;;;;;;2612551;54;20193;-80
2022/10/17 08:45:20;;;;;;;6.87;5.40;;;22.00;99.90;;;;;;2611376;47;20162;-78
2022/10/17 08:47:50;;;;;;;8.80;5.80;;;22.30;99.90;;;;;;2611813;39;20784;-79
2022/10/17 08:50:28;;;;;;;7.33;5.17;;;22.40;99.90;;;;;;2612752;54;20439;-80
2022/10/17 08:53:10;;;;;;;7.00;5.27;;;22.10;99.90;;;;;;2612492;46;20442;-80
2022/10/17 08:55:43;;;;;;;9.50;5.90;;;21.80;99.90;;;;;;2613637;54;20423;-80
2022/10/17 08:58:25;;;;;;;13.13;6.60;;;21.20;99.90;;;;;;2612120;31;20917;-79
2022/10/17 09:01:08;;;;;;;6.83;5.40;;;22.00;99.90;;;;;;2608742;39;21045;-79
2022/10/17 09:04:01;;;;;;;6.23;4.70;;;22.30;99.90;;;;;;2610624;54;20461;-77
2022/10/17 09:06:32;;;;;;;5.43;5.03;;;22.40;99.90;;;;;;2610461;54;20435;-80
2022/10/17 09:09:32;;;;;;;6.57;5.87;;;22.30;99.90;;;;;;2612188;54;20430;-78
2022/10/17 09:12:15;;;;;;;5.87;5.27;;;22.30;99.90;;;;;;2610048;54;20550;-79
2022/10/17 09:15:01;;;;;;;6.37;5.73;;;22.20;99.90;;;;;;2608751;54;20426;-78
2022/10/17 09:17:43;;;;;;;6.27;5.77;;;22.00;99.90;;;;;;2611484;54;20431;-77
2022/10/17 09:20:19;;;;;;;6.67;5.63;;;21.70;99.90;;;;;;2609808;46;20435;-77
2022/10/17 09:22:57;;;;;;;6.47;5.87;;;22.40;99.90;;;;;;2613081;54;20450;-79
2022/10/17 09:25:23;;;;;;;7.70;5.20;;;22.20;99.90;;;;;;2612329;54;20423;-82
2022/10/17 09:28:11;;;;;;;6.60;4.90;;;22.00;99.90;;;;;;2610294;54;20434;-80
2022/10/17 09:30:46;;;;;;;8.23;6.07;;;21.50;99.90;;;;;;2611975;54;20486;-78
2022/10/17 09:33:13;;;;;;;6.13;5.57;;;21.60;99.90;;;;;;2609450;39;21222;-80
2022/10/17 09:35:40;;;;;;;6.20;5.20;;;21.70;99.90;;;;;;2613910;54;20490;-79
2022/10/17 09:38:19;;;;;;;6.10;4.93;;;21.80;99.90;;;;;;2610762;54;20507;-78
2022/10/17 09:40:56;;;;;;;7.27;5.03;;;22.00;99.90;;;;;;2612093;54;20447;-81
2022/10/17 09:43:23;;;;;;;11.07;5.77;;;22.00;99.90;;;;;;2613894;54;20418;-79
2022/10/17 09:46:02;;;;;;;8.20;5.37;;;21.90;99.90;;;;;;2611383;54;20415;-80
2022/10/17 09:48:38;;;;;;;5.87;5.37;;;21.80;99.90;;;;;;2614266;54;20427;-80
2022/10/17 09:51:05;;;;;;;7.30;5.50;;;21.70;99.90;;;;;;2611377;54;20404;-81
2022/10/17 09:53:38;;;;;;;13.00;5.83;;;21.60;99.90;;;;;;2613299;54;20554;-83
2022/10/17 09:56:11;;;;;;;10.20;5.70;;;21.60;99.90;;;;;;2613666;54;20494;-83
2022/10/17 09:58:42;;;;;;;13.77;5.90;;;21.40;99.90;;;;;;2610849;54;20423;-81
2022/10/17 10:01:20;;;;;;;9.10;6.50;;;21.50;99.90;;;;;;2612224;54;20414;-80
2022/10/17 10:03:47;;;;;;;6.70;6.10;;;20.90;99.90;;;;;;2609977;47;20462;-81
2022/10/17 10:06:20;;;;;;;10.00;5.87;;;20.80;99.90;;;;;;2613732;54;20424;-82
2022/10/17 10:08:57;;;;;;;6.83;5.70;;;21.00;99.90;;;;;;2610932;54;20435;-81
2022/10/17 10:11:42;;;;;;;8.57;5.20;;;21.00;99.90;;;;;;2608832;39;21264;-83
2022/10/17 10:14:17;;;;;;;7.10;6.03;;;21.00;99.90;;;;;;2605392;54;20412;-83
2022/10/17 10:16:44;;;;;;;6.77;6.00;;;20.80;99.90;;;;;;2607564;54;20421;-82
2022/10/17 10:19:34;;;;;;;6.60;6.10;;;20.80;99.90;;;;;;2605705;54;20426;-81
2022/10/17 10:22:01;;;;;;;6.10;5.60;;;20.80;99.90;;;;;;2605787;54;20475;-82
2022/10/17 10:24:29;;;;;;;7.37;6.27;;;20.90;99.90;;;;;;2610303;54;20392;-83
2022/10/17 10:27:01;;;;;;;5.87;5.47;;;21.00;99.90;;;;;;2606293;46;20435;-81
2022/10/17 10:29:31;;;;;;;6.60;6.00;;;20.90;99.90;;;;;;2609153;54;20412;-81
2022/10/17 10:32:16;;;;;;;6.30;5.70;;;20.90;99.90;;;;;;2607429;54;20490;-82
2022/10/17 10:34:52;;;;;;;8.47;5.20;;;20.80;99.90;;;;;;2610410;47;20435;-81
2022/10/17 10:37:21;;;;;;;6.93;6.33;;;20.70;99.90;;;;;;2610812;54;20419;-80
2022/10/17 10:39:48;;;;;;;8.93;6.37;;;20.70;99.90;;;;;;2607482;54;20445;-81
2022/10/17 10:42:28;;;;;;;7.03;5.93;;;20.90;99.90;;;;;;2608566;54;20430;-84
2022/10/17 10:45:00;;;;;;;8.57;6.20;;;21.10;99.90;;;;;;2609287;39;20842;-83
2022/10/17 10:47:28;;;;;;;7.00;5.67;;;21.30;99.90;;;;;;2607035;54;21463;-78
2022/10/17 10:50:19;;;;;;;7.27;6.57;;;21.30;99.90;;;;;;2606556;54;20507;-78
2022/10/17 10:52:53;;;;;;;7.53;6.10;;;21.50;99.90;;;;;;2607716;54;20515;-82
2022/10/17 10:55:27;;;;;;;9.03;6.30;;;21.40;99.90;;;;;;2603374;54;20574;-82
2022/10/17 10:58:00;;;;;;;6.30;5.80;;;21.30;99.90;;;;;;2607267;54;20415;-79
2022/10/17 11:00:28;;;;;;;8.10;6.10;;;21.30;99.90;;;;;;2606265;54;20428;-81
2022/10/17 11:03:11;;;;;;;17.67;6.77;;;21.30;99.90;;;;;;2604907;47;20420;-78
2022/10/17 11:05:59;;;;;;;7.10;5.80;;;21.20;99.90;;;;;;2606614;54;20446;-78
2022/10/17 11:08:32;;;;;;;7.73;6.23;;;21.20;99.90;;;;;;2606163;54;20431;-77
2022/10/17 11:11:02;;;;;;;7.97;5.83;;;21.00;99.90;;;;;;2611324;39;20841;-77
2022/10/17 11:13:38;;;;;;;7.57;6.00;;;20.80;99.90;;;;;;2611157;54;20521;-79
2022/10/17 11:16:26;;;;;;;7.50;6.53;;;20.90;99.90;;;;;;2612284;39;20804;-81
2022/10/17 11:19:42;;;;;;;7.10;6.40;;;20.70;99.90;;;;;;2611265;54;20466;-81
2022/10/17 11:22:31;;;;;;;7.13;5.53;;;20.80;99.90;;;;;;2611255;54;20438;-80
2022/10/17 11:25:12;;;;;;;8.63;6.43;;;20.70;99.90;;;;;;2609743;54;20415;-80
2022/10/17 11:27:38;;;;;;;7.23;6.53;;;20.80;99.90;;;;;;2610345;39;20808;-80
2022/10/17 11:30:04;;;;;;;6.83;6.23;;;20.90;99.90;;;;;;2610840;54;20427;-80
2022/10/17 11:32:49;;;;;;;9.77;6.27;;;20.80;99.90;;;;;;2609782;54;20233;-80
2022/10/17 11:35:23;;;;;;;8.70;6.57;;;20.90;99.90;;;;;;2611358;54;20451;-80
2022/10/17 11:37:59;;;;;;;6.80;6.10;;;21.00;99.90;;;;;;2611817;54;20990;-82
2022/10/17 11:40:34;;;;;;;8.63;6.33;;;20.90;99.90;;;;;;2611972;54;20412;-81
2022/10/17 11:43:05;;;;;;;8.00;5.97;;;20.80;99.90;;;;;;2612005;47;20427;-81
2022/10/17 11:45:39;;;;;;;10.90;6.27;;;21.00;99.90;;;;;;2612493;54;20411;-82
2022/10/17 11:48:34;;;;;;;9.97;6.27;;;21.00;99.90;;;;;;2610865;54;20566;-78
2022/10/17 11:51:17;;;;;;;8.20;6.00;;;21.00;99.90;;;;;;2611703;54;20423;-80
2022/10/17 11:53:54;;;;;;;6.30;5.80;;;21.00;99.90;;;;;;2612215;39;20670;-80
2022/10/17 11:56:31;;;;;;;8.30;6.10;;;21.10;99.90;;;;;;2614037;54;20411;-79
2022/10/17 11:59:40;;;;;;;7.27;5.77;;;21.30;99.90;;;;;;2615185;39;20784;-80
2022/10/17 12:02:31;;;;;;;6.23;5.73;;;21.30;99.90;;;;;;2613465;54;20438;-80
2022/10/17 12:05:32;;;;;;;10.47;6.40;;;21.00;99.90;;;;;;2613432;54;20983;-82
2022/10/17 12:08:11;;;;;;;10.20;6.47;;;21.00;99.90;;;;;;2611859;54;20422;-79
2022/10/17 12:10:46;;;;;;;7.20;6.40;;;21.00;99.90;;;;;;2611913;47;20962;-77
2022/10/17 12:13:27;;;;;;;8.20;6.57;;;21.10;99.90;;;;;;2614053;47;20426;-78
2022/10/17 12:15:57;;;;;;;11.00;6.70;;;20.90;99.90;;;;;;2614512;54;20423;-79
2022/10/17 12:18:26;;;;;;;6.97;6.37;;;20.90;99.90;;;;;;2615398;54;21345;-82
2022/10/17 12:20:59;;;;;;;7.63;5.97;;;20.80;99.90;;;;;;2614326;47;21764;-83
2022/10/17 12:23:29;;;;;;;7.03;5.67;;;20.70;99.90;;;;;;2613386;54;20423;-80
2022/10/17 12:26:00;;;;;;;7.50;6.10;;;20.70;99.90;;;;;;2611679;54;20411;-81
2022/10/17 12:28:45;;;;;;;6.70;6.10;;;20.80;99.90;;;;;;2615773;54;20411;-83
2022/10/17 12:31:18;;;;;;;10.63;6.80;;;20.80;99.90;;;;;;2618022;54;20431;-85
2022/10/17 12:33:58;;;;;;;8.20;7.30;;;20.70;99.90;;;;;;2617288;54;20419;-82
2022/10/17 12:36:27;;;;;;;10.03;6.20;;;20.70;99.90;;;;;;2614486;39;20793;-83
2022/10/17 12:39:02;;;;;;;8.57;6.20;;;20.60;99.90;;;;;;2614245;31;20979;-82
2022/10/17 12:41:40;;;;;;;5.73;5.23;;;20.60;99.90;;;;;;2612028;54;20453;-82
2022/10/17 12:44:20;;;;;;;7.60;6.17;;;20.40;99.90;;;;;;2613337;54;20407;-82
2022/10/17 12:46:55;;;;;;;10.77;6.43;;;20.40;99.90;;;;;;2613657;39;20813;-80
2022/10/17 12:49:38;;;;;;;13.53;6.40;;;20.30;99.90;;;;;;2612669;54;20927;-80
2022/10/17 12:52:13;;;;;;;9.47;5.73;;;20.40;99.90;;;;;;2613551;54;20935;-79
2022/10/17 12:54:41;;;;;;;6.90;6.20;;;20.30;99.90;;;;;;2609448;54;20418;-79
2022/10/17 12:57:28;;;;;;;9.50;6.00;;;20.20;99.90;;;;;;2612540;47;20408;-84
2022/10/17 12:59:54;;;;;;;7.17;5.70;;;20.20;99.90;;;;;;2612298;54;20466;-83
2022/10/17 13:02:28;;;;;;;15.97;6.37;;;20.20;99.90;;;;;;2614372;54;20971;-80
2022/10/17 13:05:07;;;;;;;10.40;6.60;;;20.20;99.90;;;;;;2613363;54;20511;-80